Time;durP1;ratioP1;P1;durP2;ratioP2;P2;SDS_P1;SDS_P2;PMS_P1;PMS_P2;Temp;Humidity;BMP_temperature;BMP_pressure;BME280_temperature;BME280_humidity;BME280_pressure;Samples;Min_cycle;Max_cycle;Signal;HPM_P1;HPM_P2
2023/04/19 00:02:07;;;;;;;2.60;2.20;;;8.50;99.90;;;;;;4930389;29;20841;-67
2023/04/19 00:04:36;;;;;;;4.20;2.37;;;8.50;99.90;;;;;;4929987;29;20590;-67
2023/04/19 00:07:03;;;;;;;3.80;2.30;;;8.50;99.90;;;;;;4930946;29;20306;-67
2023/04/19 00:09:30;;;;;;;2.53;2.33;;;8.50;99.90;;;;;;4930448;29;20291;-68
2023/04/19 00:11:59;;;;;;;2.27;2.10;;;8.40;99.90;;;;;;4930523;29;20602;-67
2023/04/19 00:14:26;;;;;;;2.57;2.13;;;8.50;99.90;;;;;;4930005;29;20208;-68
2023/04/19 00:16:53;;;;;;;4.00;2.53;;;8.40;99.90;;;;;;4930758;29;20323;-67
2023/04/19 00:19:21;;;;;;;3.30;2.70;;;8.40;99.90;;;;;;4929933;29;20307;-67
2023/04/19 00:21:48;;;;;;;3.23;2.33;;;8.40;99.90;;;;;;4928916;29;20495;-67
2023/04/19 00:24:15;;;;;;;4.33;1.90;;;8.40;99.90;;;;;;4929833;29;20291;-67
2023/04/19 00:26:41;;;;;;;2.83;2.40;;;8.40;99.90;;;;;;4929932;29;20228;-67
2023/04/19 00:29:10;;;;;;;2.40;2.10;;;8.40;99.90;;;;;;4922939;29;20669;-67
2023/04/19 00:31:38;;;;;;;2.40;2.17;;;8.40;99.90;;;;;;4925370;29;20204;-67
2023/04/19 00:34:05;;;;;;;2.47;2.20;;;8.50;99.90;;;;;;4929748;29;20283;-67
2023/04/19 00:36:32;;;;;;;3.73;2.10;;;8.40;99.90;;;;;;4929746;29;20265;-67
2023/04/19 00:38:59;;;;;;;3.27;2.20;;;8.40;99.90;;;;;;4929654;29;20220;-67
2023/04/19 00:41:26;;;;;;;1.93;1.83;;;8.50;99.90;;;;;;4929743;29;20274;-67
2023/04/19 00:43:53;;;;;;;3.30;2.27;;;8.40;99.90;;;;;;4929733;29;20292;-67
2023/04/19 00:46:21;;;;;;;2.90;2.00;;;8.50;99.90;;;;;;4929702;29;20582;-67
2023/04/19 00:48:49;;;;;;;4.10;2.10;;;8.50;99.90;;;;;;4929748;29;20291;-68
2023/04/19 00:51:16;;;;;;;2.50;2.10;;;8.50;99.90;;;;;;4929879;29;20218;-69
2023/04/19 00:53:43;;;;;;;2.03;1.83;;;8.40;99.90;;;;;;4929209;29;20826;-69
2023/04/19 00:56:11;;;;;;;2.93;1.90;;;8.40;99.90;;;;;;4929475;29;20355;-68
2023/04/19 00:58:39;;;;;;;3.03;2.03;;;8.40;99.90;;;;;;4929473;29;20967;-68
2023/04/19 01:01:06;;;;;;;6.20;2.17;;;8.30;99.90;;;;;;4929795;29;20243;-68
2023/04/19 01:03:35;;;;;;;4.63;2.20;;;8.30;99.90;;;;;;4929454;29;20213;-68
2023/04/19 01:06:02;;;;;;;2.30;1.80;;;8.30;99.90;;;;;;4929476;29;20219;-68
2023/04/19 01:08:29;;;;;;;3.40;2.13;;;8.20;99.90;;;;;;4929728;29;20244;-68
2023/04/19 01:10:56;;;;;;;2.00;1.90;;;8.20;99.90;;;;;;4929479;29;20204;-68
2023/04/19 01:13:23;;;;;;;2.30;2.10;;;8.20;99.90;;;;;;4929381;29;20243;-68
2023/04/19 01:15:51;;;;;;;5.17;2.27;;;8.20;99.90;;;;;;4928717;29;20254;-68
2023/04/19 01:18:18;;;;;;;2.10;1.93;;;8.20;99.90;;;;;;4928871;29;20246;-67
2023/04/19 01:20:48;;;;;;;2.60;2.10;;;8.20;99.90;;;;;;4928898;29;20627;-67
2023/04/19 01:23:16;;;;;;;3.20;2.33;;;8.20;99.90;;;;;;4928114;29;20243;-68
2023/04/19 01:25:43;;;;;;;2.20;2.00;;;8.10;99.90;;;;;;4925486;29;20295;-68
2023/04/19 01:28:10;;;;;;;2.93;2.20;;;8.10;99.90;;;;;;4929048;29;20208;-68
2023/04/19 01:30:37;;;;;;;2.10;2.00;;;8.10;99.90;;;;;;4920355;29;20222;-68
2023/04/19 01:33:04;;;;;;;2.17;1.93;;;8.10;99.90;;;;;;4928656;29;20318;-68
2023/04/19 01:35:31;;;;;;;4.97;2.40;;;8.10;99.90;;;;;;4928219;29;20714;-68
2023/04/19 01:37:57;;;;;;;2.17;1.97;;;8.10;99.90;;;;;;4928461;29;20299;-68
2023/04/19 01:40:26;;;;;;;2.47;2.00;;;7.90;99.90;;;;;;4928662;29;20220;-67
2023/04/19 01:42:53;;;;;;;3.17;2.10;;;8.00;99.90;;;;;;4928554;29;20575;-67
2023/04/19 01:45:20;;;;;;;1.83;1.73;;;7.80;99.90;;;;;;4928595;29;20299;-67
2023/04/19 01:47:47;;;;;;;2.80;1.90;;;7.90;99.90;;;;;;4928576;29;20243;-67
2023/04/19 01:50:14;;;;;;;2.13;2.00;;;7.90;99.90;;;;;;4928769;29;20215;-67
2023/04/19 01:52:41;;;;;;;3.03;2.10;;;7.90;99.90;;;;;;4928437;29;20328;-67
2023/04/19 01:55:08;;;;;;;2.17;2.00;;;7.90;99.90;;;;;;4928277;29;20238;-67
2023/04/19 01:57:37;;;;;;;3.43;1.70;;;7.90;99.90;;;;;;4928109;29;20298;-67
2023/04/19 02:00:05;;;;;;;2.80;1.97;;;8.00;99.90;;;;;;4927826;29;20220;-67
2023/04/19 02:02:31;;;;;;;2.00;1.80;;;7.90;99.90;;;;;;4928255;29;20259;-68
2023/04/19 02:04:58;;;;;;;2.20;2.00;;;7.80;99.90;;;;;;4928008;29;20230;-68
2023/04/19 02:07:25;;;;;;;2.67;2.47;;;7.80;99.90;;;;;;4928653;29;20314;-68
2023/04/19 02:09:52;;;;;;;2.30;2.10;;;7.80;99.90;;;;;;4928322;29;20315;-68
2023/04/19 02:12:19;;;;;;;5.03;2.70;;;7.80;99.90;;;;;;4928646;29;20219;-68
2023/04/19 02:14:47;;;;;;;2.37;2.20;;;7.80;99.90;;;;;;4928005;29;20235;-68
2023/04/19 02:17:14;;;;;;;2.00;1.90;;;7.80;99.90;;;;;;4927917;29;20254;-69
2023/04/19 02:19:41;;;;;;;2.87;2.07;;;7.70;99.90;;;;;;4927667;29;20247;-67
2023/04/19 02:22:08;;;;;;;2.53;1.83;;;7.60;99.90;;;;;;4927703;29;20203;-67
2023/04/19 02:24:35;;;;;;;2.13;2.00;;;7.60;99.90;;;;;;4927498;29;20968;-68
2023/04/19 02:27:02;;;;;;;2.13;1.90;;;7.60;99.90;;;;;;4927348;29;20226;-68
2023/04/19 02:29:29;;;;;;;2.07;1.93;;;7.60;99.90;;;;;;4925879;29;20327;-68
2023/04/19 02:31:57;;;;;;;2.23;1.83;;;7.60;99.90;;;;;;4926452;29;20211;-67
2023/04/19 02:34:24;;;;;;;2.23;2.03;;;7.50;99.90;;;;;;4926064;29;20298;-67
2023/04/19 02:36:51;;;;;;;3.87;2.43;;;7.60;99.90;;;;;;4925933;29;20244;-68
2023/04/19 02:39:18;;;;;;;4.57;2.40;;;7.50;99.90;;;;;;4925855;29;20672;-68
2023/04/19 02:41:45;;;;;;;5.17;2.27;;;7.50;99.90;;;;;;4926506;29;20212;-67
2023/04/19 02:44:12;;;;;;;2.80;2.03;;;7.60;99.90;;;;;;4927577;29;20216;-68
2023/04/19 02:46:39;;;;;;;3.23;2.27;;;7.60;99.90;;;;;;4930319;29;20690;-67
2023/04/19 02:49:08;;;;;;;3.00;2.00;;;7.50;99.90;;;;;;4930391;29;20592;-67
2023/04/19 02:51:35;;;;;;;3.03;1.70;;;7.40;99.90;;;;;;4930334;29;20299;-68
2023/04/19 02:54:01;;;;;;;2.37;1.97;;;7.50;99.90;;;;;;4930208;29;20203;-67
2023/04/19 02:56:28;;;;;;;2.33;1.80;;;7.50;99.90;;;;;;4930196;29;20322;-69
2023/04/19 02:58:55;;;;;;;2.23;1.80;;;7.50;99.90;;;;;;4929573;29;20578;-69
2023/04/19 03:01:23;;;;;;;1.93;1.80;;;7.50;99.90;;;;;;4930023;29;20223;-68
2023/04/19 03:03:50;;;;;;;3.00;1.60;;;7.50;99.90;;;;;;4929977;29;20216;-68
2023/04/19 03:06:18;;;;;;;2.50;1.97;;;7.50;99.90;;;;;;4930988;29;20713;-67
2023/04/19 03:08:45;;;;;;;2.10;1.50;;;7.50;99.90;;;;;;4930811;29;20216;-68
2023/04/19 03:11:12;;;;;;;1.80;1.70;;;7.50;99.90;;;;;;4930914;29;20209;-68
2023/04/19 03:13:39;;;;;;;1.73;1.63;;;7.40;99.90;;;;;;4930667;29;20295;-68
2023/04/19 03:16:07;;;;;;;1.70;1.60;;;7.40;99.90;;;;;;4929571;29;20239;-68
2023/04/19 03:18:33;;;;;;;4.37;1.47;;;7.40;99.90;;;;;;4930615;29;20218;-68
2023/04/19 03:21:00;;;;;;;2.80;1.80;;;7.30;99.90;;;;;;4930217;29;21025;-68
2023/04/19 03:23:29;;;;;;;3.27;2.10;;;7.30;99.90;;;;;;4929964;29;20208;-68
2023/04/19 03:25:56;;;;;;;2.00;1.90;;;7.30;99.90;;;;;;4930757;29;20641;-68
2023/04/19 03:28:23;;;;;;;2.73;1.80;;;7.30;99.90;;;;;;4930979;29;20303;-68
2023/04/19 03:30:50;;;;;;;1.80;1.70;;;7.30;99.90;;;;;;4930837;29;21039;-68
2023/04/19 03:33:17;;;;;;;3.93;1.60;;;7.30;99.90;;;;;;4931418;29;20266;-68
2023/04/19 03:35:44;;;;;;;2.10;1.90;;;7.40;99.90;;;;;;4930899;29;20769;-68
2023/04/19 03:38:11;;;;;;;2.40;2.20;;;7.30;99.90;;;;;;4931039;29;20215;-68
2023/04/19 03:40:39;;;;;;;2.03;1.83;;;7.30;99.90;;;;;;4930584;29;20216;-67
2023/04/19 03:43:06;;;;;;;3.83;2.00;;;7.20;99.90;;;;;;4930886;29;20790;-68
2023/04/19 03:45:33;;;;;;;1.93;1.73;;;7.20;99.90;;;;;;4930881;29;20302;-68
2023/04/19 03:48:00;;;;;;;4.37;1.87;;;7.20;99.90;;;;;;4931063;29;20251;-68
2023/04/19 03:50:27;;;;;;;2.57;2.20;;;7.20;99.90;;;;;;4931053;29;20266;-68
2023/04/19 03:52:54;;;;;;;3.77;1.93;;;7.20;99.90;;;;;;4931069;29;20295;-68
2023/04/19 03:55:21;;;;;;;3.30;1.90;;;7.20;99.90;;;;;;4929639;29;20216;-67
2023/04/19 03:57:49;;;;;;;2.20;1.90;;;7.20;99.90;;;;;;4930235;29;20750;-67
2023/04/19 04:00:17;;;;;;;3.03;1.90;;;7.10;99.90;;;;;;4930542;29;20322;-68
2023/04/19 04:02:44;;;;;;;4.33;2.60;;;7.10;99.90;;;;;;4930676;29;20212;-68
2023/04/19 04:05:11;;;;;;;4.13;2.60;;;7.10;99.90;;;;;;4930337;29;20223;-67
2023/04/19 04:07:37;;;;;;;2.70;2.50;;;7.10;99.90;;;;;;4930294;29;20216;-68
2023/04/19 04:10:05;;;;;;;4.07;2.30;;;7.10;99.90;;;;;;4930175;29;20307;-67
2023/04/19 04:12:32;;;;;;;3.03;2.30;;;7.10;99.90;;;;;;4929961;29;20252;-68
2023/04/19 04:15:01;;;;;;;2.53;2.33;;;7.10;99.90;;;;;;4930072;29;20210;-68
2023/04/19 04:17:27;;;;;;;3.27;2.43;;;7.00;99.90;;;;;;4929984;29;20789;-68
2023/04/19 04:19:54;;;;;;;5.83;2.87;;;7.10;99.90;;;;;;4927931;29;20292;-67
2023/04/19 04:22:21;;;;;;;2.63;2.17;;;7.10;99.90;;;;;;4930023;29;20327;-67
2023/04/19 04:24:48;;;;;;;2.77;1.93;;;7.10;99.90;;;;;;4929701;29;20298;-68
2023/04/19 04:27:19;;;;;;;2.37;2.03;;;7.10;99.90;;;;;;4930569;29;20219;-68
2023/04/19 04:33:10;;;;;;;3.63;2.00;;;7.10;99.90;;;;;;4933695;29;20214;-68
2023/04/19 04:35:38;;;;;;;1.67;1.57;;;7.10;99.90;;;;;;4949091;28;20974;-68
2023/04/19 04:38:06;;;;;;;2.67;2.00;;;7.00;99.90;;;;;;4949164;28;20207;-68
2023/04/19 04:40:33;;;;;;;3.03;2.30;;;7.00;99.90;;;;;;4949157;28;20215;-68
2023/04/19 04:43:03;;;;;;;3.67;2.37;;;7.00;99.90;;;;;;4949271;28;20278;-68
2023/04/19 04:45:30;;;;;;;2.07;1.80;;;7.00;99.90;;;;;;4949271;28;20562;-67
2023/04/19 04:47:57;;;;;;;3.10;2.30;;;7.20;99.90;;;;;;4931143;28;20219;-68
2023/04/19 04:50:26;;;;;;;2.27;2.00;;;7.00;99.90;;;;;;4929537;29;20275;-67
2023/04/19 04:52:53;;;;;;;3.70;2.13;;;7.00;99.90;;;;;;4929773;29;20208;-68
2023/04/19 04:55:20;;;;;;;3.60;2.00;;;7.00;99.90;;;;;;4930071;29;20298;-68
2023/04/19 04:57:47;;;;;;;3.60;1.87;;;7.00;99.90;;;;;;4929363;29;20331;-68
2023/04/19 05:00:14;;;;;;;2.23;1.73;;;6.90;99.90;;;;;;4929681;29;20283;-68
2023/04/19 05:02:42;;;;;;;2.63;1.90;;;6.90;99.90;;;;;;4929713;29;20332;-68
2023/04/19 05:05:11;;;;;;;2.43;2.10;;;6.90;99.90;;;;;;4928896;29;20303;-68
2023/04/19 05:07:39;;;;;;;4.80;2.10;;;6.90;99.90;;;;;;4922452;29;20217;-68
2023/04/19 05:10:09;;;;;;;2.53;2.10;;;6.80;99.90;;;;;;4910741;29;20221;-68
2023/04/19 05:12:37;;;;;;;2.37;1.87;;;6.80;99.90;;;;;;4910348;29;20263;-68
2023/04/19 05:15:05;;;;;;;3.80;1.73;;;6.90;99.90;;;;;;4919603;29;20300;-68
2023/04/19 05:17:32;;;;;;;3.93;2.23;;;6.90;99.90;;;;;;4928752;29;20933;-68
2023/04/19 05:19:59;;;;;;;3.13;2.50;;;6.90;99.90;;;;;;4929025;29;20698;-67
2023/04/19 05:22:26;;;;;;;2.97;2.13;;;7.00;99.90;;;;;;4922999;29;20300;-67
2023/04/19 05:24:54;;;;;;;3.53;2.10;;;7.00;99.90;;;;;;4909900;29;20541;-67
2023/04/19 05:27:21;;;;;;;4.93;2.37;;;7.10;99.90;;;;;;4909890;29;20675;-67
2023/04/19 05:29:50;;;;;;;2.07;1.73;;;7.10;99.90;;;;;;4924695;29;20299;-67
2023/04/19 05:32:17;;;;;;;2.00;1.80;;;7.10;99.90;;;;;;4929101;29;20236;-68
2023/04/19 05:34:43;;;;;;;3.60;1.90;;;7.20;99.90;;;;;;4929368;29;20251;-68
2023/04/19 05:37:11;;;;;;;3.80;2.00;;;7.20;99.90;;;;;;4928908;29;20360;-68
2023/04/19 05:39:37;;;;;;;2.30;1.53;;;7.30;99.90;;;;;;4928643;29;20665;-68
2023/04/19 05:42:06;;;;;;;2.17;1.63;;;7.30;99.90;;;;;;4928824;29;20253;-68
2023/04/19 05:44:33;;;;;;;3.23;2.03;;;7.30;99.90;;;;;;4928714;29;20212;-68
2023/04/19 05:47:00;;;;;;;1.80;1.63;;;7.40;99.90;;;;;;4928653;29;20267;-68
2023/04/19 05:49:27;;;;;;;2.23;1.70;;;7.30;99.90;;;;;;4928926;29;20791;-68
2023/04/19 05:51:54;;;;;;;1.90;1.80;;;7.30;99.90;;;;;;4929119;29;20314;-68
2023/04/19 05:54:21;;;;;;;2.07;1.87;;;7.30;99.90;;;;;;4928503;29;20957;-68
2023/04/19 05:56:48;;;;;;;3.20;1.83;;;7.30;99.90;;;;;;4928639;29;20287;-68
2023/04/19 05:59:16;;;;;;;3.03;1.40;;;7.30;99.90;;;;;;4928543;29;20311;-68
2023/04/19 06:01:43;;;;;;;2.20;1.60;;;7.30;99.90;;;;;;4928680;29;20323;-68
2023/04/19 06:04:10;;;;;;;4.60;1.60;;;7.40;99.90;;;;;;4927664;29;20296;-68
2023/04/19 06:06:37;;;;;;;1.50;1.40;;;7.40;99.90;;;;;;4928765;29;20215;-68
2023/04/19 06:09:05;;;;;;;2.10;1.50;;;7.40;99.90;;;;;;4928820;29;20220;-68
2023/04/19 06:11:32;;;;;;;2.40;1.40;;;7.40;99.90;;;;;;4928311;29;20220;-67
2023/04/19 06:13:59;;;;;;;1.70;1.33;;;7.30;99.90;;;;;;4928459;29;20321;-68
2023/04/19 06:16:28;;;;;;;2.93;1.63;;;7.30;99.90;;;;;;4928537;29;20358;-68
2023/04/19 06:18:55;;;;;;;2.93;1.53;;;7.40;99.90;;;;;;4927435;29;20232;-68
2023/04/19 06:21:22;;;;;;;6.13;1.63;;;7.40;99.90;;;;;;4928056;29;20993;-67
2023/04/19 06:23:49;;;;;;;1.53;1.43;;;7.40;99.90;;;;;;4911171;29;20296;-68
2023/04/19 06:26:16;;;;;;;2.23;1.60;;;7.50;99.90;;;;;;4925558;29;20216;-68
2023/04/19 06:28:43;;;;;;;1.50;1.40;;;7.50;99.90;;;;;;4928181;29;20216;-68
2023/04/19 06:31:11;;;;;;;3.30;1.60;;;7.60;99.90;;;;;;4927884;29;20826;-68
2023/04/19 06:33:39;;;;;;;3.23;1.50;;;7.60;99.90;;;;;;4928265;29;20703;-68
2023/04/19 06:36:06;;;;;;;3.33;1.60;;;7.60;99.90;;;;;;4928232;29;20235;-68
2023/04/19 06:38:33;;;;;;;3.27;1.83;;;7.60;99.90;;;;;;4928048;29;20282;-68
2023/04/19 06:41:00;;;;;;;1.90;1.47;;;7.60;99.90;;;;;;4928328;29;20212;-68
2023/04/19 06:43:27;;;;;;;6.03;1.60;;;7.70;99.90;;;;;;4928476;29;20303;-68
2023/04/19 06:45:58;;;;;;;1.97;1.57;;;7.70;99.90;;;;;;4927983;29;20947;-68
2023/04/19 06:48:26;;;;;;;2.67;1.20;;;7.80;99.90;;;;;;4927963;29;20750;-68
2023/04/19 06:50:54;;;;;;;3.43;1.83;;;7.80;99.90;;;;;;4928264;29;20223;-68
2023/04/19 06:53:21;;;;;;;2.17;1.50;;;7.90;99.90;;;;;;4928073;29;20220;-68
2023/04/19 06:55:48;;;;;;;1.80;1.20;;;7.90;99.90;;;;;;4927863;29;20295;-68
2023/04/19 06:58:15;;;;;;;2.73;1.60;;;7.90;99.90;;;;;;4928371;29;20331;-68
2023/04/19 07:00:42;;;;;;;1.87;1.57;;;7.90;99.90;;;;;;4926959;29;20259;-68
2023/04/19 07:03:09;;;;;;;3.10;1.53;;;8.00;99.90;;;;;;4928340;29;20216;-68
2023/04/19 07:05:36;;;;;;;2.53;1.90;;;8.00;99.90;;;;;;4927842;29;20216;-68
2023/04/19 07:08:05;;;;;;;3.00;1.33;;;8.10;99.90;;;;;;4927846;29;20295;-68
2023/04/19 07:10:32;;;;;;;2.30;1.80;;;8.10;99.90;;;;;;4928047;29;20224;-68
2023/04/19 07:12:59;;;;;;;2.20;1.50;;;8.20;99.90;;;;;;4927846;29;20707;-68
2023/04/19 07:15:25;;;;;;;2.83;1.43;;;8.30;99.90;;;;;;4927790;29;20739;-68
2023/04/19 07:17:52;;;;;;;2.30;1.63;;;8.30;99.90;;;;;;4927382;29;20276;-68
2023/04/19 07:20:20;;;;;;;2.53;1.40;;;8.30;99.90;;;;;;4928026;29;20204;-68
2023/04/19 07:22:47;;;;;;;1.70;1.40;;;8.30;99.90;;;;;;4927588;29;20216;-68
2023/04/19 07:25:15;;;;;;;3.23;1.93;;;8.40;99.90;;;;;;4927881;29;20303;-68
2023/04/19 07:27:42;;;;;;;2.07;1.40;;;8.50;99.90;;;;;;4927869;29;20216;-68
2023/04/19 07:30:10;;;;;;;2.47;1.40;;;8.50;99.90;;;;;;4928648;29;20635;-68
2023/04/19 07:32:37;;;;;;;1.50;1.10;;;8.60;99.90;;;;;;4931319;29;20226;-68
2023/04/19 07:35:04;;;;;;;3.13;1.47;;;8.60;99.90;;;;;;4930904;29;20212;-68
2023/04/19 07:37:31;;;;;;;1.57;1.30;;;8.60;99.90;;;;;;4931161;29;20893;-68
2023/04/19 07:39:58;;;;;;;4.57;1.90;;;8.70;99.90;;;;;;4931040;29;20291;-68
2023/04/19 07:42:27;;;;;;;3.53;2.20;;;8.70;99.90;;;;;;4931304;29;20298;-68
2023/04/19 07:44:56;;;;;;;4.40;2.67;;;8.80;99.90;;;;;;4930665;29;20252;-68
2023/04/19 07:47:23;;;;;;;2.20;1.80;;;8.90;99.90;;;;;;4930742;29;20212;-68
2023/04/19 07:49:52;;;;;;;3.73;1.83;;;8.90;99.90;;;;;;4930323;29;20685;-68
2023/04/19 07:52:19;;;;;;;3.20;2.00;;;8.90;99.90;;;;;;4931103;29;20287;-68
2023/04/19 07:54:46;;;;;;;2.00;1.20;;;9.00;99.90;;;;;;4930515;29;20212;-68
2023/04/19 07:57:13;;;;;;;1.60;1.50;;;9.10;99.90;;;;;;4917911;29;20810;-68
2023/04/19 07:59:41;;;;;;;1.57;1.30;;;9.20;99.90;;;;;;4922237;29;20315;-68
2023/04/19 08:02:08;;;;;;;2.80;1.60;;;9.30;99.90;;;;;;4930773;29;20662;-68
2023/04/19 08:04:36;;;;;;;3.73;1.70;;;9.30;99.90;;;;;;4930650;29;20624;-68
2023/04/19 08:07:03;;;;;;;3.00;1.80;;;9.40;99.90;;;;;;4930593;29;20244;-68
2023/04/19 08:09:30;;;;;;;2.00;1.80;;;9.40;99.90;;;;;;4930729;29;20208;-68
2023/04/19 08:11:57;;;;;;;5.70;2.17;;;9.50;99.90;;;;;;4930671;29;20286;-68
2023/04/19 08:14:24;;;;;;;2.67;2.00;;;9.50;99.90;;;;;;4930415;29;20220;-68
2023/04/19 08:16:52;;;;;;;1.90;1.80;;;9.60;99.90;;;;;;4929911;29;20247;-68
2023/04/19 08:19:19;;;;;;;2.73;1.40;;;9.60;99.90;;;;;;4930655;29;20303;-68
2023/04/19 08:21:46;;;;;;;3.30;1.80;;;9.70;99.90;;;;;;4929990;29;21107;-68
2023/04/19 08:24:13;;;;;;;2.43;1.90;;;9.70;99.90;;;;;;4930243;29;20647;-68
2023/04/19 08:26:41;;;;;;;1.77;1.67;;;9.70;99.90;;;;;;4930414;29;20266;-69
2023/04/19 08:29:08;;;;;;;4.40;1.80;;;9.80;99.90;;;;;;4929820;29;20693;-67
2023/04/19 08:31:35;;;;;;;3.90;1.70;;;9.90;99.90;;;;;;4930100;29;20246;-68
2023/04/19 08:34:03;;;;;;;3.27;1.63;;;9.90;99.90;;;;;;4929926;29;20722;-68
2023/04/19 08:36:30;;;;;;;1.53;1.43;;;10.00;99.90;;;;;;4930512;29;20698;-68
2023/04/19 08:38:57;;;;;;;1.57;1.47;;;10.00;99.90;;;;;;4929982;29;20811;-68
2023/04/19 08:41:26;;;;;;;7.43;1.93;;;10.20;99.90;;;;;;4929946;29;20294;-69
2023/04/19 08:43:54;;;;;;;2.00;1.90;;;10.20;99.90;;;;;;4929809;29;20739;-68
2023/04/19 08:46:23;;;;;;;4.03;1.63;;;10.30;99.90;;;;;;4930337;29;20295;-69
2023/04/19 08:48:51;;;;;;;2.17;1.60;;;10.30;99.90;;;;;;4930130;29;20304;-69
2023/04/19 08:51:19;;;;;;;3.80;1.73;;;10.30;99.90;;;;;;4930295;29;20216;-69
2023/04/19 08:53:48;;;;;;;2.93;1.83;;;10.30;99.90;;;;;;4914223;29;20276;-68
2023/04/19 08:56:19;;;;;;;2.90;1.63;;;10.40;99.90;;;;;;4910977;29;20220;-68
2023/04/19 08:58:46;;;;;;;4.37;1.80;;;10.50;99.90;;;;;;4910484;29;20237;-68
2023/04/19 09:01:13;;;;;;;4.67;1.60;;;10.50;99.90;;;;;;4928405;29;20212;-68
2023/04/19 09:03:44;;;;;;;3.97;1.90;;;10.60;99.90;;;;;;4929767;29;20215;-68
2023/04/19 09:06:11;;;;;;;2.40;2.20;;;10.70;99.90;;;;;;4929668;29;20197;-68
2023/04/19 09:08:40;;;;;;;3.33;1.80;;;10.80;99.90;;;;;;4929538;29;20216;-68
2023/04/19 09:11:07;;;;;;;2.80;1.83;;;10.80;99.90;;;;;;4929739;29;20208;-68
2023/04/19 09:13:37;;;;;;;4.67;1.70;;;10.90;99.90;;;;;;4929668;29;20295;-68
2023/04/19 09:16:06;;;;;;;2.10;1.90;;;11.00;99.90;;;;;;4928988;29;20216;-68
2023/04/19 09:18:34;;;;;;;6.93;2.13;;;11.10;99.90;;;;;;4929273;29;20236;-68
2023/04/19 09:21:01;;;;;;;2.00;1.77;;;11.20;99.90;;;;;;4929528;29;20216;-68
2023/04/19 09:23:28;;;;;;;3.27;1.67;;;11.20;99.90;;;;;;4929408;29;20208;-68
2023/04/19 09:25:59;;;;;;;2.77;1.70;;;11.10;99.90;;;;;;4929384;29;20279;-68
2023/04/19 09:28:27;;;;;;;5.73;1.90;;;11.10;99.90;;;;;;4929248;29;20259;-68
2023/04/19 09:30:55;;;;;;;2.07;1.73;;;11.20;99.90;;;;;;4928791;29;20714;-68
2023/04/19 09:33:32;;;;;;;4.37;2.00;;;11.40;99.90;;;;;;4929388;29;20208;-68
2023/04/19 09:36:00;;;;;;;2.20;1.97;;;11.40;99.90;;;;;;4929810;29;20591;-68
2023/04/19 09:38:27;;;;;;;2.67;2.10;;;11.40;99.90;;;;;;4929452;29;20239;-68
2023/04/19 09:41:07;;;;;;;2.03;1.73;;;11.50;99.90;;;;;;4929034;29;21088;-68
2023/04/19 09:43:34;;;;;;;3.33;1.73;;;11.60;99.90;;;;;;4910177;29;20224;-68
2023/04/19 09:46:01;;;;;;;2.73;1.80;;;11.80;99.90;;;;;;4909778;29;20318;-68
2023/04/19 09:48:28;;;;;;;2.87;1.90;;;11.80;99.90;;;;;;4913613;29;20219;-68
2023/04/19 09:50:57;;;;;;;4.27;2.53;;;11.90;99.90;;;;;;4928586;29;20244;-68
2023/04/19 09:53:25;;;;;;;2.27;2.17;;;11.90;99.90;;;;;;4927713;29;20713;-68
2023/04/19 09:55:52;;;;;;;3.70;1.93;;;11.90;99.90;;;;;;4928151;29;20308;-68
2023/04/19 09:58:22;;;;;;;2.10;1.87;;;11.90;99.90;;;;;;4928323;29;20318;-67
2023/04/19 10:00:51;;;;;;;3.37;2.23;;;11.90;99.90;;;;;;4928179;29;20220;-68
2023/04/19 10:03:20;;;;;;;2.20;2.00;;;12.00;99.90;;;;;;4927995;29;20208;-68
2023/04/19 10:05:47;;;;;;;1.97;1.83;;;12.00;99.90;;;;;;4927970;29;20259;-68
2023/04/19 10:08:15;;;;;;;2.97;1.93;;;12.10;99.90;;;;;;4928396;29;20236;-68
2023/04/19 10:10:42;;;;;;;5.80;2.40;;;12.20;99.90;;;;;;4928098;29;20255;-68
2023/04/19 10:13:12;;;;;;;4.40;2.00;;;12.30;99.90;;;;;;4928319;29;20254;-68
2023/04/19 10:15:43;;;;;;;4.07;2.07;;;12.40;99.90;;;;;;4928005;29;20232;-68
2023/04/19 10:18:10;;;;;;;1.90;1.80;;;12.50;99.90;;;;;;4927909;29;20587;-68
2023/04/19 10:20:48;;;;;;;3.13;2.10;;;12.60;99.90;;;;;;4928151;29;20295;-68
2023/04/19 10:23:15;;;;;;;5.40;2.40;;;12.70;99.90;;;;;;4927981;29;20200;-68
2023/04/19 10:25:46;;;;;;;5.30;2.80;;;12.90;99.90;;;;;;4908583;29;21136;-68
2023/04/19 10:28:13;;;;;;;3.20;2.50;;;13.00;99.90;;;;;;4908779;29;20683;-68
2023/04/19 10:30:53;;;;;;;3.90;2.23;;;13.10;99.90;;;;;;4908488;29;20333;-67
2023/04/19 10:33:26;;;;;;;4.20;2.20;;;13.10;99.90;;;;;;4909165;29;20197;-68
2023/04/19 10:35:56;;;;;;;3.23;2.40;;;13.20;99.90;;;;;;4908533;29;20606;-68
2023/04/19 10:38:38;;;;;;;4.27;2.27;;;13.20;99.90;;;;;;4908778;29;20236;-68
2023/04/19 10:41:10;;;;;;;4.03;2.20;;;13.10;99.90;;;;;;4909139;29;20208;-68
2023/04/19 10:43:38;;;;;;;4.13;2.20;;;13.10;99.90;;;;;;4909447;29;20264;-68
2023/04/19 10:46:09;;;;;;;2.90;2.30;;;13.10;99.90;;;;;;4922930;29;20298;-68
2023/04/19 10:48:42;;;;;;;2.30;2.10;;;13.20;99.90;;;;;;4927714;29;20303;-68
2023/04/19 10:51:14;;;;;;;3.03;2.20;;;13.30;99.90;;;;;;4927753;29;20204;-69
2023/04/19 10:53:52;;;;;;;1.90;1.80;;;13.30;99.90;;;;;;4927437;29;20216;-69
2023/04/19 10:56:21;;;;;;;3.67;2.37;;;13.50;99.90;;;;;;4927818;29;20203;-69
2023/04/19 10:59:20;;;;;;;3.47;2.37;;;13.50;99.90;;;;;;4927315;29;20338;-69
2023/04/19 11:01:53;;;;;;;4.47;2.10;;;13.60;99.90;;;;;;4927638;29;20231;-69
2023/04/19 11:04:25;;;;;;;2.40;2.20;;;13.70;99.90;;;;;;4927505;29;20275;-69
2023/04/19 11:07:02;;;;;;;4.00;2.93;;;13.90;99.90;;;;;;4931544;29;20212;-69
2023/04/19 11:09:34;;;;;;;3.37;2.40;;;14.00;99.50;;;;;;4931487;28;20303;-69
2023/04/19 11:12:03;;;;;;;13.80;3.13;;;14.00;99.90;;;;;;4931186;29;20299;-69
2023/04/19 11:14:36;;;;;;;9.27;2.60;;;14.10;99.40;;;;;;4930842;29;20276;-69
2023/04/19 11:17:16;;;;;;;11.50;2.53;;;14.10;99.80;;;;;;4930537;29;20251;-69
2023/04/19 11:19:44;;;;;;;3.17;2.80;;;14.30;99.90;;;;;;4930600;29;20258;-69
2023/04/19 11:22:11;;;;;;;6.70;2.60;;;14.40;99.70;;;;;;4931401;29;20208;-69
2023/04/19 11:24:38;;;;;;;5.67;2.30;;;14.40;98.70;;;;;;4931402;29;20212;-69
2023/04/19 11:27:09;;;;;;;4.43;2.33;;;14.20;99.40;;;;;;4931393;29;20239;-69
2023/04/19 11:29:36;;;;;;;4.60;2.00;;;14.10;99.30;;;;;;4931154;29;20212;-69
2023/04/19 11:32:05;;;;;;;3.67;2.30;;;14.00;99.90;;;;;;4930978;29;20344;-68
2023/04/19 11:34:36;;;;;;;6.43;2.67;;;14.00;99.90;;;;;;4930512;29;20215;-69
2023/04/19 11:37:03;;;;;;;3.57;2.50;;;14.20;99.70;;;;;;4931063;29;20437;-69
2023/04/19 11:39:30;;;;;;;2.67;2.33;;;14.20;99.30;;;;;;4930594;29;20988;-69
2023/04/19 11:41:58;;;;;;;3.43;2.67;;;14.20;99.00;;;;;;4930907;29;20295;-69
2023/04/19 11:44:25;;;;;;;3.03;2.10;;;14.20;99.00;;;;;;4930424;29;20211;-69
2023/04/19 11:46:59;;;;;;;2.67;2.47;;;14.20;98.80;;;;;;4930525;29;20806;-69
2023/04/19 11:49:28;;;;;;;2.30;2.10;;;14.10;98.80;;;;;;4930753;29;20302;-69
2023/04/19 11:51:58;;;;;;;5.50;2.07;;;14.00;99.00;;;;;;4931015;29;20219;-69
2023/04/19 11:54:25;;;;;;;2.53;2.30;;;13.90;99.10;;;;;;4930700;29;20216;-69
2023/04/19 11:57:03;;;;;;;2.83;2.20;;;14.10;99.60;;;;;;4930276;29;20654;-69
2023/04/19 11:59:31;;;;;;;5.83;2.60;;;14.20;98.60;;;;;;4930595;29;20243;-69
2023/04/19 12:02:08;;;;;;;5.20;2.97;;;14.20;98.00;;;;;;4930186;29;20292;-69
2023/04/19 12:04:37;;;;;;;3.10;2.30;;;14.10;98.40;;;;;;4930772;29;20211;-69
2023/04/19 12:07:05;;;;;;;3.10;2.80;;;14.00;98.00;;;;;;4930354;29;20315;-69
2023/04/19 12:09:34;;;;;;;5.37;2.87;;;13.80;97.80;;;;;;4930483;29;20204;-69
2023/04/19 12:12:01;;;;;;;4.77;2.60;;;13.80;98.40;;;;;;4930096;29;20788;-69
2023/04/19 12:14:28;;;;;;;12.50;2.97;;;13.70;98.20;;;;;;4930327;29;20345;-69
2023/04/19 12:17:09;;;;;;;3.63;2.20;;;13.60;98.50;;;;;;4928762;29;20335;-69
2023/04/19 12:19:42;;;;;;;6.07;2.23;;;13.60;99.20;;;;;;4929894;29;20276;-69
2023/04/19 12:22:14;;;;;;;3.37;2.47;;;13.70;99.40;;;;;;4926419;29;20235;-69
2023/04/19 12:24:41;;;;;;;2.40;2.20;;;13.70;98.90;;;;;;4911144;29;20614;-69
2023/04/19 12:27:08;;;;;;;4.93;2.10;;;13.70;98.40;;;;;;4911002;29;20680;-69
2023/04/19 12:29:36;;;;;;;3.00;2.50;;;13.70;98.50;;;;;;4920716;29;20271;-70
2023/04/19 12:32:03;;;;;;;11.70;2.53;;;13.70;98.70;;;;;;4929895;29;20243;-69
2023/04/19 12:34:30;;;;;;;5.07;2.30;;;13.80;98.90;;;;;;4929960;29;20220;-69
2023/04/19 12:36:58;;;;;;;2.63;2.40;;;13.80;98.70;;;;;;4928932;29;20251;-69
2023/04/19 12:39:25;;;;;;;2.97;2.10;;;13.90;98.70;;;;;;4910644;29;20240;-69
2023/04/19 12:41:52;;;;;;;3.83;2.20;;;13.80;98.80;;;;;;4910503;29;20260;-69
2023/04/19 12:44:19;;;;;;;5.17;2.60;;;13.80;98.80;;;;;;4913291;29;20656;-69
2023/04/19 12:46:46;;;;;;;4.10;2.73;;;13.80;98.60;;;;;;4929328;29;20339;-69
2023/04/19 12:49:13;;;;;;;6.70;2.77;;;13.70;98.70;;;;;;4929724;29;20671;-70
2023/04/19 12:51:41;;;;;;;4.13;3.10;;;13.70;98.90;;;;;;4929209;29;20649;-69
2023/04/19 12:54:09;;;;;;;12.87;3.20;;;13.70;98.80;;;;;;4929356;29;20567;-69
2023/04/19 12:56:36;;;;;;;4.10;2.60;;;13.60;98.70;;;;;;4929312;29;20725;-69
2023/04/19 12:59:03;;;;;;;8.80;2.70;;;13.60;98.80;;;;;;4929187;29;20323;-69
2023/04/19 13:01:31;;;;;;;3.63;3.23;;;13.60;98.70;;;;;;4929331;29;20271;-69